Historyczne dane pomiarowe

Dodano dane terminowe – wersja testowa.

Dane z okresu 1951-2019

Wersja bazy: 1.34 [2019-03-16, lista zmian], aktualizacja planowana na 2019-04-15

Dane meteo z obszaru Polski uzyskane na podstawie danych udostępnionych przez Instytut Meteorologii i Gospodarki Wodnej – Państwowy Instytut Badawczy.

 

Wybierz Datę:    

       

TemperaturaWilgotnośćWiatrCiśnienieOpadyŚniegCzas trwania zjawisk
 Stacja t tx tn tng RH VA  wxwx mslp ppp RRR   cm mm wxwxwxwxwxwxwx
1975-09-11 13.4 21.0 6.8- 70.3- 1.7 2.0---- 0.0------------
1975-09-12 14.7 22.1 8.8- 71.8- 5.0 5.7---- 0.0------------
1975-09-13 12.4 18.0 10.0- 91.0- 5.7 3.0---- 12.0------------
1975-09-14 11.6 18.0 5.9- 81.0- 2.0 4.7---- 0.0------------
1975-09-15 15.7 22.5 10.3- 75.8- 0.7 3.7---- 0.0------------
1975-09-16 17.2 22.1 14.0- 83.5- 5.7 1.3---- 0.0------------
1975-09-17 15.9 23.5 7.7- 76.3- 0.0 0.7---- 0.0------------
1975-09-18 17.1 25.2 11.3- 73.5- 0.0 3.7---- 0.0------------
1975-09-19 18.1 26.0 11.3- 73.3- 0.0 2.0---- 0.0------------
1975-09-20 17.7 25.8 11.7- 78.0- 0.0 0.7---- 0.0------------
1975-09-21 17.3 23.9 12.3- 84.3- 2.7 1.7---- 0.0------------
1975-09-22 15.6 19.9 13.6- 82.5- 2.0 2.0---- 0.0------------
1975-09-23 12.7 19.8 8.3- 79.8- 3.0 1.0---- 0.0------------
1975-09-24 15.3 22.1 11.3- 81.8- 1.7 3.3---- 0.0------------
1975-09-25 16.4 24.0 11.8- 77.5- 1.7 4.0---- 0.0------------
1975-09-26 18.0 24.4 13.3- 72.3- 0.0 8.0---- 3.8------------
1975-09-27 13.0 18.8 10.2- 80.8- 2.3 3.7---- 0.0------------
1975-09-28 16.1 23.5 10.3- 75.0- 1.7 5.7---- 0.0------------
1975-09-29 13.5 17.7 12.0- 86.3- 7.3 1.0---- 2.0------------
1975-09-30 14.0 19.6 10.4- 82.8- 1.7 5.0---- 0.0------------
1975-10-01 16.0 22.6 10.4- 57.5- 0.3 6.3---- 0.0------------
1975-10-02 16.3 22.3 10.9- 70.3- 5.0 1.3---- 5.7------------
1975-10-03 14.7 17.0 12.0- 94.5- 8.0 1.3---- 0.0------------
1975-10-04 11.8 15.3 9.5- 84.3- 5.3 5.0---- 2.1------------
1975-10-05 10.0 10.7 9.3- 88.0- 8.0 4.3---- 4.5------------
1975-10-06 11.2 12.9 10.3- 94.5- 8.0 2.3---- 0.3------------
1975-10-07 10.3 12.7 6.7- 83.8- 4.7 5.7---- 3.7------------
1975-10-08 7.4 10.2 6.3- 88.0- 6.3 5.0---- 2.6------------
1975-10-09 6.2 8.4 4.7- 85.0- 4.0 4.7---- 1.3------------
1975-10-10 3.7 5.0 2.7- 90.8- 6.3 1.3---- 0.0------------
146.6 ms

 

Źródłem pochodzenia danych jest Instytut Meteorologii i Gospodarki Wodnej – Państwowy Instytut Badawczy. Dane Instytutu Meteorologii i Gospodarki Wodnej – Państwowego Instytutu Badawczego zostały przetworzone.

Dane źródłowe można odnaleźć na stronie https://dane.imgw.pl